sensor_id;sensor_type;location;lat;lon;timestamp;temperature;humidity
1702;DHT22;848;48.354;10.064;2022-12-16T00:00:39;0.90;99.90
1702;DHT22;848;48.354;10.064;2022-12-16T00:03:06;1.00;99.90
1702;DHT22;848;48.354;10.064;2022-12-16T00:05:33;1.00;99.90
1702;DHT22;848;48.354;10.064;2022-12-16T00:08:02;1.00;99.90
1702;DHT22;848;48.354;10.064;2022-12-16T00:10:29;0.90;99.90
1702;DHT22;848;48.354;10.064;2022-12-16T00:13:16;0.90;99.90
1702;DHT22;848;48.354;10.064;2022-12-16T00:15:46;0.90;99.90
1702;DHT22;848;48.354;10.064;2022-12-16T00:18:16;1.00;99.90
1702;DHT22;848;48.354;10.064;2022-12-16T00:20:44;1.00;99.90
1702;DHT22;848;48.354;10.064;2022-12-16T00:23:12;1.00;99.90
1702;DHT22;848;48.354;10.064;2022-12-16T00:25:40;1.00;99.90
1702;DHT22;848;48.354;10.064;2022-12-16T00:28:08;1.00;99.90
1702;DHT22;848;48.354;10.064;2022-12-16T00:30:38;1.10;99.90
1702;DHT22;848;48.354;10.064;2022-12-16T00:33:07;1.20;99.90
1702;DHT22;848;48.354;10.064;2022-12-16T00:35:36;1.20;99.90
1702;DHT22;848;48.354;10.064;2022-12-16T00:38:03;1.20;99.90
1702;DHT22;848;48.354;10.064;2022-12-16T00:40:32;1.20;99.90
1702;DHT22;848;48.354;10.064;2022-12-16T00:42:59;1.20;99.90
1702;DHT22;848;48.354;10.064;2022-12-16T00:45:26;1.20;99.90
1702;DHT22;848;48.354;10.064;2022-12-16T00:47:53;1.20;99.90
1702;DHT22;848;48.354;10.064;2022-12-16T00:50:21;1.20;99.90
1702;DHT22;848;48.354;10.064;2022-12-16T00:52:48;1.20;99.90
1702;DHT22;848;48.354;10.064;2022-12-16T00:55:15;1.20;99.90
1702;DHT22;848;48.354;10.064;2022-12-16T00:57:43;1.10;99.90
1702;DHT22;848;48.354;10.064;2022-12-16T01:00:11;1.20;99.90
1702;DHT22;848;48.354;10.064;2022-12-16T01:02:38;1.20;99.90
1702;DHT22;848;48.354;10.064;2022-12-16T01:05:06;1.20;99.90
1702;DHT22;848;48.354;10.064;2022-12-16T01:07:37;1.10;99.90
1702;DHT22;848;48.354;10.064;2022-12-16T01:10:05;1.10;99.90
1702;DHT22;848;48.354;10.064;2022-12-16T01:12:33;1.10;99.90
1702;DHT22;848;48.354;10.064;2022-12-16T01:15:00;1.10;99.90
1702;DHT22;848;48.354;10.064;2022-12-16T01:17:27;1.10;99.90
1702;DHT22;848;48.354;10.064;2022-12-16T01:19:54;1.10;99.90
1702;DHT22;848;48.354;10.064;2022-12-16T01:22:21;1.00;99.90
1702;DHT22;848;48.354;10.064;2022-12-16T01:24:50;1.00;99.90
1702;DHT22;848;48.354;10.064;2022-12-16T01:27:17;1.00;99.90
1702;DHT22;848;48.354;10.064;2022-12-16T01:29:43;1.10;99.90
1702;DHT22;848;48.354;10.064;2022-12-16T01:32:12;1.20;99.90
1702;DHT22;848;48.354;10.064;2022-12-16T01:34:39;1.20;99.90
1702;DHT22;848;48.354;10.064;2022-12-16T01:37:08;1.30;99.90
1702;DHT22;848;48.354;10.064;2022-12-16T01:39:36;1.20;99.90
1702;DHT22;848;48.354;10.064;2022-12-16T01:42:09;1.10;99.90
1702;DHT22;848;48.354;10.064;2022-12-16T01:44:37;1.10;99.90
1702;DHT22;848;48.354;10.064;2022-12-16T01:47:05;1.00;99.90
1702;DHT22;848;48.354;10.064;2022-12-16T01:49:36;0.90;99.90
1702;DHT22;848;48.354;10.064;2022-12-16T01:52:05;1.00;99.90
1702;DHT22;848;48.354;10.064;2022-12-16T01:54:37;1.10;99.90
1702;DHT22;848;48.354;10.064;2022-12-16T01:57:09;1.10;99.90
1702;DHT22;848;48.354;10.064;2022-12-16T01:59:40;1.10;99.90
1702;DHT22;848;48.354;10.064;2022-12-16T02:02:07;1.10;99.90
1702;DHT22;848;48.354;10.064;2022-12-16T02:04:34;1.00;99.90
1702;DHT22;848;48.354;10.064;2022-12-16T02:07:21;1.00;99.90
1702;DHT22;848;48.354;10.064;2022-12-16T02:09:48;1.00;99.90
1702;DHT22;848;48.354;10.064;2022-12-16T02:12:26;0.90;99.90
1702;DHT22;848;48.354;10.064;2022-12-16T02:15:07;0.90;99.90
1702;DHT22;848;48.354;10.064;2022-12-16T02:17:42;0.90;99.90
1702;DHT22;848;48.354;10.064;2022-12-16T02:23:14;1.00;99.90
1702;DHT22;848;48.354;10.064;2022-12-16T02:25:56;0.90;99.90
1702;DHT22;848;48.354;10.064;2022-12-16T02:28:44;1.00;99.90
1702;DHT22;848;48.354;10.064;2022-12-16T02:31:23;1.10;99.90
1702;DHT22;848;48.354;10.064;2022-12-16T02:34:01;1.10;99.90
1702;DHT22;848;48.354;10.064;2022-12-16T02:36:44;1.20;99.90
1702;DHT22;848;48.354;10.064;2022-12-16T02:39:20;1.00;99.90
1702;DHT22;848;48.354;10.064;2022-12-16T02:41:51;0.90;99.90
1702;DHT22;848;48.354;10.064;2022-12-16T02:44:20;1.00;99.90
1702;DHT22;848;48.354;10.064;2022-12-16T02:46:55;1.00;99.90
1702;DHT22;848;48.354;10.064;2022-12-16T02:49:52;0.90;99.90
1702;DHT22;848;48.354;10.064;2022-12-16T02:52:22;0.90;99.90
1702;DHT22;848;48.354;10.064;2022-12-16T02:54:52;0.90;99.90
1702;DHT22;848;48.354;10.064;2022-12-16T02:57:45;0.80;99.90
1702;DHT22;848;48.354;10.064;2022-12-16T03:00:17;0.80;99.90
1702;DHT22;848;48.354;10.064;2022-12-16T03:02:53;0.90;99.90
1702;DHT22;848;48.354;10.064;2022-12-16T03:05:25;0.80;99.90
1702;DHT22;848;48.354;10.064;2022-12-16T03:07:55;0.90;99.90
1702;DHT22;848;48.354;10.064;2022-12-16T03:10:27;0.80;99.90
1702;DHT22;848;48.354;10.064;2022-12-16T03:12:55;0.80;99.90
1702;DHT22;848;48.354;10.064;2022-12-16T03:15:25;0.90;99.90
1702;DHT22;848;48.354;10.064;2022-12-16T03:17:56;0.80;99.90
1702;DHT22;848;48.354;10.064;2022-12-16T03:20:26;0.80;99.90
1702;DHT22;848;48.354;10.064;2022-12-16T03:22:56;0.80;99.90
1702;DHT22;848;48.354;10.064;2022-12-16T03:25:25;0.50;99.90
1702;DHT22;848;48.354;10.064;2022-12-16T03:27:58;0.50;99.90
1702;DHT22;848;48.354;10.064;2022-12-16T03:30:31;0.50;99.90
1702;DHT22;848;48.354;10.064;2022-12-16T03:33:04;0.30;99.90
1702;DHT22;848;48.354;10.064;2022-12-16T03:35:36;0.30;99.90
1702;DHT22;848;48.354;10.064;2022-12-16T03:38:08;0.30;99.90
1702;DHT22;848;48.354;10.064;2022-12-16T03:40:37;0.30;99.90
1702;DHT22;848;48.354;10.064;2022-12-16T03:43:07;0.40;99.90
1702;DHT22;848;48.354;10.064;2022-12-16T03:45:38;0.60;99.90
1702;DHT22;848;48.354;10.064;2022-12-16T03:48:09;0.70;99.90
1702;DHT22;848;48.354;10.064;2022-12-16T03:50:37;0.70;99.90
1702;DHT22;848;48.354;10.064;2022-12-16T03:53:05;0.70;99.90
1702;DHT22;848;48.354;10.064;2022-12-16T03:55:32;0.70;99.90
1702;DHT22;848;48.354;10.064;2022-12-16T03:57:59;0.80;99.90
1702;DHT22;848;48.354;10.064;2022-12-16T04:00:26;0.70;99.90
1702;DHT22;848;48.354;10.064;2022-12-16T04:02:52;0.70;99.90
1702;DHT22;848;48.354;10.064;2022-12-16T04:05:21;0.80;99.90
1702;DHT22;848;48.354;10.064;2022-12-16T04:07:48;0.80;99.90
1702;DHT22;848;48.354;10.064;2022-12-16T04:10:15;0.80;99.90
1702;DHT22;848;48.354;10.064;2022-12-16T04:13:02;0.80;99.90
1702;DHT22;848;48.354;10.064;2022-12-16T04:15:49;0.80;99.90
1702;DHT22;848;48.354;10.064;2022-12-16T04:18:33;0.80;99.90
1702;DHT22;848;48.354;10.064;2022-12-16T04:21:19;0.90;99.90
1702;DHT22;848;48.354;10.064;2022-12-16T04:24:04;0.90;99.90
1702;DHT22;848;48.354;10.064;2022-12-16T04:26:48;0.80;99.90
1702;DHT22;848;48.354;10.064;2022-12-16T04:29:33;0.80;99.90
1702;DHT22;848;48.354;10.064;2022-12-16T04:32:20;1.00;99.90
1702;DHT22;848;48.354;10.064;2022-12-16T04:34:47;0.90;99.90
1702;DHT22;848;48.354;10.064;2022-12-16T04:37:15;0.90;99.90
1702;DHT22;848;48.354;10.064;2022-12-16T04:39:59;0.90;99.90
1702;DHT22;848;48.354;10.064;2022-12-16T04:42:43;1.00;99.90
1702;DHT22;848;48.354;10.064;2022-12-16T04:45:28;0.90;99.90
1702;DHT22;848;48.354;10.064;2022-12-16T04:48:12;1.00;99.90
1702;DHT22;848;48.354;10.064;2022-12-16T04:50:56;1.00;99.90
1702;DHT22;848;48.354;10.064;2022-12-16T04:53:42;1.00;99.90
1702;DHT22;848;48.354;10.064;2022-12-16T04:56:28;0.90;99.90
1702;DHT22;848;48.354;10.064;2022-12-16T04:59:13;0.90;99.90
1702;DHT22;848;48.354;10.064;2022-12-16T05:01:57;0.90;99.90
1702;DHT22;848;48.354;10.064;2022-12-16T05:04:41;0.90;99.90
1702;DHT22;848;48.354;10.064;2022-12-16T05:07:25;1.00;99.90
1702;DHT22;848;48.354;10.064;2022-12-16T05:10:11;1.10;99.90
1702;DHT22;848;48.354;10.064;2022-12-16T05:12:55;1.00;99.90
1702;DHT22;848;48.354;10.064;2022-12-16T05:15:39;1.00;99.90
1702;DHT22;848;48.354;10.064;2022-12-16T05:18:24;1.00;99.90
1702;DHT22;848;48.354;10.064;2022-12-16T05:21:08;1.00;99.90
1702;DHT22;848;48.354;10.064;2022-12-16T05:23:52;0.90;99.90
1702;DHT22;848;48.354;10.064;2022-12-16T05:26:38;0.90;99.90
1702;DHT22;848;48.354;10.064;2022-12-16T05:29:23;0.90;99.90
1702;DHT22;848;48.354;10.064;2022-12-16T05:32:07;0.90;99.90
1702;DHT22;848;48.354;10.064;2022-12-16T05:34:51;1.00;99.90
1702;DHT22;848;48.354;10.064;2022-12-16T05:37:35;0.90;99.90
1702;DHT22;848;48.354;10.064;2022-12-16T05:40:19;1.00;99.90
1702;DHT22;848;48.354;10.064;2022-12-16T05:43:05;1.00;99.90
1702;DHT22;848;48.354;10.064;2022-12-16T05:45:49;1.00;99.90
1702;DHT22;848;48.354;10.064;2022-12-16T05:48:33;1.00;99.90
1702;DHT22;848;48.354;10.064;2022-12-16T05:51:18;0.90;99.90
1702;DHT22;848;48.354;10.064;2022-12-16T05:54:02;0.80;99.90
1702;DHT22;848;48.354;10.064;2022-12-16T05:56:46;0.70;99.90
1702;DHT22;848;48.354;10.064;2022-12-16T05:59:32;0.70;99.90
1702;DHT22;848;48.354;10.064;2022-12-16T06:02:16;0.70;99.90
1702;DHT22;848;48.354;10.064;2022-12-16T06:05:00;0.70;99.90
1702;DHT22;848;48.354;10.064;2022-12-16T06:07:49;0.60;99.90
1702;DHT22;848;48.354;10.064;2022-12-16T06:10:34;0.40;99.90
1702;DHT22;848;48.354;10.064;2022-12-16T06:13:18;0.50;99.90
1702;DHT22;848;48.354;10.064;2022-12-16T06:16:04;0.50;99.90
1702;DHT22;848;48.354;10.064;2022-12-16T06:18:48;0.70;99.90
1702;DHT22;848;48.354;10.064;2022-12-16T06:21:32;0.70;99.90
1702;DHT22;848;48.354;10.064;2022-12-16T06:24:16;0.80;99.90
1702;DHT22;848;48.354;10.064;2022-12-16T06:27:01;0.70;99.90
1702;DHT22;848;48.354;10.064;2022-12-16T06:29:45;0.70;99.90
1702;DHT22;848;48.354;10.064;2022-12-16T06:32:30;0.60;99.90
1702;DHT22;848;48.354;10.064;2022-12-16T06:35:16;0.60;99.90
1702;DHT22;848;48.354;10.064;2022-12-16T06:38:01;0.40;99.90
1702;DHT22;848;48.354;10.064;2022-12-16T06:40:44;0.10;99.90
1702;DHT22;848;48.354;10.064;2022-12-16T06:43:29;0.10;99.90
1702;DHT22;848;48.354;10.064;2022-12-16T06:46:13;-0.10;99.90
1702;DHT22;848;48.354;10.064;2022-12-16T06:48:59;0.00;99.90
1702;DHT22;848;48.354;10.064;2022-12-16T06:51:43;0.00;99.90
1702;DHT22;848;48.354;10.064;2022-12-16T06:54:28;0.20;99.90
1702;DHT22;848;48.354;10.064;2022-12-16T06:57:12;0.20;99.90
1702;DHT22;848;48.354;10.064;2022-12-16T06:59:56;0.20;99.90
1702;DHT22;848;48.354;10.064;2022-12-16T07:02:40;0.20;99.90
1702;DHT22;848;48.354;10.064;2022-12-16T07:05:25;0.20;99.90
1702;DHT22;848;48.354;10.064;2022-12-16T07:08:12;0.20;99.90
1702;DHT22;848;48.354;10.064;2022-12-16T07:10:56;0.20;99.90
1702;DHT22;848;48.354;10.064;2022-12-16T07:13:41;0.30;99.90
1702;DHT22;848;48.354;10.064;2022-12-16T07:16:25;0.40;99.90
1702;DHT22;848;48.354;10.064;2022-12-16T07:19:09;0.50;99.90
1702;DHT22;848;48.354;10.064;2022-12-16T07:21:54;0.20;99.90
1702;DHT22;848;48.354;10.064;2022-12-16T07:24:39;-0.10;99.90
1702;DHT22;848;48.354;10.064;2022-12-16T07:27:23;-0.10;99.90
1702;DHT22;848;48.354;10.064;2022-12-16T07:30:08;-0.30;99.90
1702;DHT22;848;48.354;10.064;2022-12-16T07:32:52;-0.50;99.90
1702;DHT22;848;48.354;10.064;2022-12-16T07:35:37;-0.60;99.90
1702;DHT22;848;48.354;10.064;2022-12-16T07:38:22;-0.80;99.90
1702;DHT22;848;48.354;10.064;2022-12-16T07:41:07;-0.90;99.90
1702;DHT22;848;48.354;10.064;2022-12-16T07:43:51;-0.90;99.90
1702;DHT22;848;48.354;10.064;2022-12-16T07:46:35;-1.00;99.90
1702;DHT22;848;48.354;10.064;2022-12-16T07:49:19;-1.10;99.90
1702;DHT22;848;48.354;10.064;2022-12-16T07:52:03;-1.10;99.90
1702;DHT22;848;48.354;10.064;2022-12-16T07:54:49;-1.00;99.90
1702;DHT22;848;48.354;10.064;2022-12-16T07:57:33;-1.00;99.90
1702;DHT22;848;48.354;10.064;2022-12-16T08:00:18;-0.90;99.90
1702;DHT22;848;48.354;10.064;2022-12-16T08:03:02;-0.60;99.90
1702;DHT22;848;48.354;10.064;2022-12-16T08:05:48;-0.40;99.90
1702;DHT22;848;48.354;10.064;2022-12-16T08:08:32;-0.20;99.90
1702;DHT22;848;48.354;10.064;2022-12-16T08:11:18;0.00;99.90
1702;DHT22;848;48.354;10.064;2022-12-16T08:14:02;0.10;99.90
1702;DHT22;848;48.354;10.064;2022-12-16T08:16:46;0.20;99.90
1702;DHT22;848;48.354;10.064;2022-12-16T08:19:30;0.20;99.90
1702;DHT22;848;48.354;10.064;2022-12-16T08:22:14;0.30;99.90
1702;DHT22;848;48.354;10.064;2022-12-16T08:24:59;0.40;99.90
1702;DHT22;848;48.354;10.064;2022-12-16T08:27:46;0.30;99.90
1702;DHT22;848;48.354;10.064;2022-12-16T08:30:36;0.20;99.90
1702;DHT22;848;48.354;10.064;2022-12-16T08:33:20;0.30;99.90
1702;DHT22;848;48.354;10.064;2022-12-16T08:36:05;0.30;99.90
1702;DHT22;848;48.354;10.064;2022-12-16T08:38:50;0.40;99.90
1702;DHT22;848;48.354;10.064;2022-12-16T08:41:33;0.50;99.90
1702;DHT22;848;48.354;10.064;2022-12-16T08:44:19;0.40;99.90
1702;DHT22;848;48.354;10.064;2022-12-16T08:47:04;0.00;99.90
1702;DHT22;848;48.354;10.064;2022-12-16T08:50:03;-0.10;99.90
1702;DHT22;848;48.354;10.064;2022-12-16T08:52:47;0.00;99.90
1702;DHT22;848;48.354;10.064;2022-12-16T08:55:31;-0.20;99.90
1702;DHT22;848;48.354;10.064;2022-12-16T08:58:16;-0.20;99.90
1702;DHT22;848;48.354;10.064;2022-12-16T09:01:01;-0.10;99.90
1702;DHT22;848;48.354;10.064;2022-12-16T09:03:46;0.10;99.90
1702;DHT22;848;48.354;10.064;2022-12-16T09:06:30;0.20;99.90
1702;DHT22;848;48.354;10.064;2022-12-16T09:09:15;0.30;99.90
1702;DHT22;848;48.354;10.064;2022-12-16T09:11:59;0.30;99.90
1702;DHT22;848;48.354;10.064;2022-12-16T09:14:43;0.30;99.90
1702;DHT22;848;48.354;10.064;2022-12-16T09:17:29;0.40;99.90
1702;DHT22;848;48.354;10.064;2022-12-16T09:20:13;0.40;99.90
1702;DHT22;848;48.354;10.064;2022-12-16T09:23:00;0.50;99.90
1702;DHT22;848;48.354;10.064;2022-12-16T09:25:41;0.30;99.90
1702;DHT22;848;48.354;10.064;2022-12-16T09:28:25;0.20;99.90
1702;DHT22;848;48.354;10.064;2022-12-16T09:31:09;0.30;99.90
1702;DHT22;848;48.354;10.064;2022-12-16T09:33:54;0.30;99.90
1702;DHT22;848;48.354;10.064;2022-12-16T09:36:39;0.30;99.90
1702;DHT22;848;48.354;10.064;2022-12-16T09:39:23;0.30;99.90
1702;DHT22;848;48.354;10.064;2022-12-16T09:42:12;0.30;99.90
1702;DHT22;848;48.354;10.064;2022-12-16T09:45:05;0.40;99.90
1702;DHT22;848;48.354;10.064;2022-12-16T09:47:58;0.40;99.90
1702;DHT22;848;48.354;10.064;2022-12-16T09:50:47;0.50;99.90
1702;DHT22;848;48.354;10.064;2022-12-16T09:53:35;0.50;99.90
1702;DHT22;848;48.354;10.064;2022-12-16T09:56:26;0.40;99.90
1702;DHT22;848;48.354;10.064;2022-12-16T09:59:16;0.10;99.90
1702;DHT22;848;48.354;10.064;2022-12-16T10:02:07;0.00;99.90
1702;DHT22;848;48.354;10.064;2022-12-16T10:04:53;-0.10;99.90
1702;DHT22;848;48.354;10.064;2022-12-16T10:07:43;-0.30;99.90
1702;DHT22;848;48.354;10.064;2022-12-16T10:10:34;-0.30;99.90
1702;DHT22;848;48.354;10.064;2022-12-16T10:13:28;-0.20;99.90
1702;DHT22;848;48.354;10.064;2022-12-16T10:16:21;-0.10;99.90
1702;DHT22;848;48.354;10.064;2022-12-16T10:19:16;0.00;99.90
1702;DHT22;848;48.354;10.064;2022-12-16T10:22:16;0.10;99.90
1702;DHT22;848;48.354;10.064;2022-12-16T10:25:12;0.20;99.90
1702;DHT22;848;48.354;10.064;2022-12-16T10:28:01;0.10;99.90
1702;DHT22;848;48.354;10.064;2022-12-16T10:30:49;0.00;99.90
1702;DHT22;848;48.354;10.064;2022-12-16T10:33:36;-0.20;99.90
1702;DHT22;848;48.354;10.064;2022-12-16T10:36:21;-0.40;99.90
1702;DHT22;848;48.354;10.064;2022-12-16T10:39:18;-0.50;99.90
1702;DHT22;848;48.354;10.064;2022-12-16T10:42:14;-0.60;99.90
1702;DHT22;848;48.354;10.064;2022-12-16T10:45:02;-0.60;99.90
1702;DHT22;848;48.354;10.064;2022-12-16T10:47:47;-0.60;99.90
1702;DHT22;848;48.354;10.064;2022-12-16T10:50:40;-0.40;99.90
1702;DHT22;848;48.354;10.064;2022-12-16T10:53:25;-0.40;99.90
1702;DHT22;848;48.354;10.064;2022-12-16T10:56:22;-0.50;99.90
1702;DHT22;848;48.354;10.064;2022-12-16T10:59:11;-0.40;99.90
1702;DHT22;848;48.354;10.064;2022-12-16T11:01:57;-0.30;99.90
1702;DHT22;848;48.354;10.064;2022-12-16T11:04:42;-0.20;99.90
1702;DHT22;848;48.354;10.064;2022-12-16T11:07:31;-0.40;99.90
1702;DHT22;848;48.354;10.064;2022-12-16T11:10:33;-0.30;99.90
1702;DHT22;848;48.354;10.064;2022-12-16T11:13:22;-0.30;99.90
1702;DHT22;848;48.354;10.064;2022-12-16T11:16:11;-0.50;99.90
1702;DHT22;848;48.354;10.064;2022-12-16T11:18:57;-0.40;99.90
1702;DHT22;848;48.354;10.064;2022-12-16T11:21:42;-0.40;99.90
1702;DHT22;848;48.354;10.064;2022-12-16T11:24:27;-0.60;99.90
1702;DHT22;848;48.354;10.064;2022-12-16T11:27:20;-0.90;99.90
1702;DHT22;848;48.354;10.064;2022-12-16T11:30:16;-1.00;99.90
1702;DHT22;848;48.354;10.064;2022-12-16T11:33:10;-1.10;99.90
1702;DHT22;848;48.354;10.064;2022-12-16T11:36:05;-1.00;99.90
1702;DHT22;848;48.354;10.064;2022-12-16T11:38:52;-1.00;99.90
1702;DHT22;848;48.354;10.064;2022-12-16T11:41:39;-0.80;99.90
1702;DHT22;848;48.354;10.064;2022-12-16T11:44:28;-0.50;99.90
1702;DHT22;848;48.354;10.064;2022-12-16T11:47:20;-0.50;99.90
1702;DHT22;848;48.354;10.064;2022-12-16T11:50:11;-0.70;99.90
1702;DHT22;848;48.354;10.064;2022-12-16T11:52:59;-0.70;99.90
1702;DHT22;848;48.354;10.064;2022-12-16T11:55:46;-0.70;99.90
1702;DHT22;848;48.354;10.064;2022-12-16T11:58:36;-0.90;99.90
1702;DHT22;848;48.354;10.064;2022-12-16T12:01:44;-1.00;99.90
1702;DHT22;848;48.354;10.064;2022-12-16T12:04:29;-0.80;99.90
1702;DHT22;848;48.354;10.064;2022-12-16T12:07:24;-0.50;99.90
1702;DHT22;848;48.354;10.064;2022-12-16T12:10:38;-0.70;99.90
1702;DHT22;848;48.354;10.064;2022-12-16T12:13:49;-0.80;99.90
1702;DHT22;848;48.354;10.064;2022-12-16T12:16:42;-0.80;99.90
1702;DHT22;848;48.354;10.064;2022-12-16T12:19:37;-0.80;99.90
1702;DHT22;848;48.354;10.064;2022-12-16T12:22:33;-0.80;99.90
1702;DHT22;848;48.354;10.064;2022-12-16T12:25:23;-0.90;99.90
1702;DHT22;848;48.354;10.064;2022-12-16T12:28:21;-0.90;99.90
1702;DHT22;848;48.354;10.064;2022-12-16T12:31:15;-0.90;99.90
1702;DHT22;848;48.354;10.064;2022-12-16T12:34:08;-0.90;99.90
1702;DHT22;848;48.354;10.064;2022-12-16T12:37:05;-0.90;99.90
1702;DHT22;848;48.354;10.064;2022-12-16T12:39:55;-0.90;99.90
1702;DHT22;848;48.354;10.064;2022-12-16T12:42:46;-0.90;99.90
1702;DHT22;848;48.354;10.064;2022-12-16T12:45:52;-0.90;99.90
1702;DHT22;848;48.354;10.064;2022-12-16T12:48:44;-0.80;99.90
1702;DHT22;848;48.354;10.064;2022-12-16T12:51:39;-0.70;99.90
1702;DHT22;848;48.354;10.064;2022-12-16T12:54:32;-0.60;99.90
1702;DHT22;848;48.354;10.064;2022-12-16T12:57:24;-0.50;99.90
1702;DHT22;848;48.354;10.064;2022-12-16T13:00:14;-0.30;99.90
1702;DHT22;848;48.354;10.064;2022-12-16T13:03:04;-0.40;99.90
1702;DHT22;848;48.354;10.064;2022-12-16T13:05:51;-0.50;99.90
1702;DHT22;848;48.354;10.064;2022-12-16T13:08:51;-0.60;99.90
1702;DHT22;848;48.354;10.064;2022-12-16T13:11:37;-0.60;99.90
1702;DHT22;848;48.354;10.064;2022-12-16T13:14:57;-0.70;99.90
1702;DHT22;848;48.354;10.064;2022-12-16T13:21:45;-0.90;99.90
1702;DHT22;848;48.354;10.064;2022-12-16T13:24:37;-0.70;99.90
1702;DHT22;848;48.354;10.064;2022-12-16T13:27:23;-0.60;99.90
1702;DHT22;848;48.354;10.064;2022-12-16T13:30:22;-0.70;99.90
1702;DHT22;848;48.354;10.064;2022-12-16T13:33:26;-0.80;99.90
1702;DHT22;848;48.354;10.064;2022-12-16T13:36:12;-0.60;99.90
1702;DHT22;848;48.354;10.064;2022-12-16T13:39:03;-0.70;99.90
1702;DHT22;848;48.354;10.064;2022-12-16T13:41:59;-0.80;99.90
1702;DHT22;848;48.354;10.064;2022-12-16T13:44:57;-0.70;99.90
1702;DHT22;848;48.354;10.064;2022-12-16T13:48:03;-0.80;99.90
1702;DHT22;848;48.354;10.064;2022-12-16T13:50:50;-0.80;99.90
1702;DHT22;848;48.354;10.064;2022-12-16T13:53:40;-0.50;99.90
1702;DHT22;848;48.354;10.064;2022-12-16T13:56:33;-0.60;99.90
1702;DHT22;848;48.354;10.064;2022-12-16T13:59:20;-0.90;99.90
1702;DHT22;848;48.354;10.064;2022-12-16T14:02:22;-1.00;99.90
1702;DHT22;848;48.354;10.064;2022-12-16T14:05:17;-0.80;99.90
1702;DHT22;848;48.354;10.064;2022-12-16T14:08:04;-0.90;99.90
1702;DHT22;848;48.354;10.064;2022-12-16T14:10:55;-0.80;99.90
1702;DHT22;848;48.354;10.064;2022-12-16T14:13:59;-0.60;99.90
1702;DHT22;848;48.354;10.064;2022-12-16T14:16:51;-0.70;99.90
1702;DHT22;848;48.354;10.064;2022-12-16T14:19:48;-0.70;99.90
1702;DHT22;848;48.354;10.064;2022-12-16T14:22:47;-0.80;99.90
1702;DHT22;848;48.354;10.064;2022-12-16T14:25:34;-0.80;99.90
1702;DHT22;848;48.354;10.064;2022-12-16T14:28:22;-0.80;99.90
1702;DHT22;848;48.354;10.064;2022-12-16T14:31:14;-0.90;99.90
1702;DHT22;848;48.354;10.064;2022-12-16T14:34:01;-0.90;99.90
1702;DHT22;848;48.354;10.064;2022-12-16T14:36:46;-0.90;99.90
1702;DHT22;848;48.354;10.064;2022-12-16T14:39:37;-0.90;99.90
1702;DHT22;848;48.354;10.064;2022-12-16T14:42:24;-0.70;99.90
1702;DHT22;848;48.354;10.064;2022-12-16T14:45:25;-0.80;99.90
1702;DHT22;848;48.354;10.064;2022-12-16T14:48:23;-0.70;99.90
1702;DHT22;848;48.354;10.064;2022-12-16T14:51:23;-0.80;99.90
1702;DHT22;848;48.354;10.064;2022-12-16T14:54:21;-0.90;99.90
1702;DHT22;848;48.354;10.064;2022-12-16T14:57:12;-0.80;99.90
1702;DHT22;848;48.354;10.064;2022-12-16T15:00:11;-0.80;99.90
1702;DHT22;848;48.354;10.064;2022-12-16T15:02:57;-0.60;99.90
1702;DHT22;848;48.354;10.064;2022-12-16T15:05:43;-0.40;99.90
1702;DHT22;848;48.354;10.064;2022-12-16T15:08:31;-0.50;99.90
1702;DHT22;848;48.354;10.064;2022-12-16T15:11:19;-0.60;99.90
1702;DHT22;848;48.354;10.064;2022-12-16T15:14:08;-0.70;99.90
1702;DHT22;848;48.354;10.064;2022-12-16T15:16:54;-0.70;99.90
1702;DHT22;848;48.354;10.064;2022-12-16T15:19:51;-0.80;99.90
1702;DHT22;848;48.354;10.064;2022-12-16T15:22:43;-0.80;99.90
1702;DHT22;848;48.354;10.064;2022-12-16T15:25:28;-0.70;99.90
1702;DHT22;848;48.354;10.064;2022-12-16T15:28:24;-0.70;99.90
1702;DHT22;848;48.354;10.064;2022-12-16T15:31:20;-0.70;99.90
1702;DHT22;848;48.354;10.064;2022-12-16T15:34:35;-0.60;99.90
1702;DHT22;848;48.354;10.064;2022-12-16T15:37:23;-0.80;99.90
1702;DHT22;848;48.354;10.064;2022-12-16T15:40:32;-0.80;99.90
1702;DHT22;848;48.354;10.064;2022-12-16T15:43:22;-0.90;99.90
1702;DHT22;848;48.354;10.064;2022-12-16T15:46:17;-1.00;99.90
1702;DHT22;848;48.354;10.064;2022-12-16T15:49:02;-0.90;99.90
1702;DHT22;848;48.354;10.064;2022-12-16T15:51:47;-0.80;99.90
1702;DHT22;848;48.354;10.064;2022-12-16T15:54:32;-0.80;99.90
1702;DHT22;848;48.354;10.064;2022-12-16T15:57:24;-1.00;99.90
1702;DHT22;848;48.354;10.064;2022-12-16T16:00:19;-1.00;99.90
1702;DHT22;848;48.354;10.064;2022-12-16T16:03:16;-1.10;99.90
1702;DHT22;848;48.354;10.064;2022-12-16T16:06:01;-1.00;99.90
1702;DHT22;848;48.354;10.064;2022-12-16T16:08:49;-1.10;99.90
1702;DHT22;848;48.354;10.064;2022-12-16T16:11:34;-1.00;99.90
1702;DHT22;848;48.354;10.064;2022-12-16T16:14:14;-0.90;99.90
1702;DHT22;848;48.354;10.064;2022-12-16T16:16:59;-0.80;99.90
1702;DHT22;848;48.354;10.064;2022-12-16T16:19:44;-0.90;99.90
1702;DHT22;848;48.354;10.064;2022-12-16T16:22:28;-0.90;99.90
1702;DHT22;848;48.354;10.064;2022-12-16T16:25:14;-0.90;99.90
1702;DHT22;848;48.354;10.064;2022-12-16T16:27:59;-0.90;99.90
1702;DHT22;848;48.354;10.064;2022-12-16T16:30:43;-0.80;99.90
1702;DHT22;848;48.354;10.064;2022-12-16T16:33:27;-0.70;99.90
1702;DHT22;848;48.354;10.064;2022-12-16T16:36:14;-0.70;99.90
1702;DHT22;848;48.354;10.064;2022-12-16T16:38:59;-0.60;99.90
1702;DHT22;848;48.354;10.064;2022-12-16T16:41:43;-0.70;99.90
1702;DHT22;848;48.354;10.064;2022-12-16T16:44:28;-0.70;99.90
1702;DHT22;848;48.354;10.064;2022-12-16T16:47:15;-0.70;99.90
1702;DHT22;848;48.354;10.064;2022-12-16T16:50:00;-0.60;99.90
1702;DHT22;848;48.354;10.064;2022-12-16T16:52:49;-0.70;99.90
1702;DHT22;848;48.354;10.064;2022-12-16T16:55:33;-0.60;99.90
1702;DHT22;848;48.354;10.064;2022-12-16T16:58:22;-0.60;99.90
1702;DHT22;848;48.354;10.064;2022-12-16T17:01:09;-0.60;99.90
1702;DHT22;848;48.354;10.064;2022-12-16T17:03:55;-0.50;99.90
1702;DHT22;848;48.354;10.064;2022-12-16T17:06:39;-0.50;99.90
1702;DHT22;848;48.354;10.064;2022-12-16T17:09:24;-0.60;99.90
1702;DHT22;848;48.354;10.064;2022-12-16T17:12:16;-0.50;99.90
1702;DHT22;848;48.354;10.064;2022-12-16T17:15:01;-0.60;99.90
1702;DHT22;848;48.354;10.064;2022-12-16T17:17:45;-0.50;99.90
1702;DHT22;848;48.354;10.064;2022-12-16T17:20:29;-0.50;99.90
1702;DHT22;848;48.354;10.064;2022-12-16T17:23:14;-0.50;99.90
1702;DHT22;848;48.354;10.064;2022-12-16T17:25:59;-0.40;99.90
1702;DHT22;848;48.354;10.064;2022-12-16T17:28:44;-0.50;99.90
1702;DHT22;848;48.354;10.064;2022-12-16T17:31:31;-0.60;99.90
1702;DHT22;848;48.354;10.064;2022-12-16T17:34:15;-0.80;99.90
1702;DHT22;848;48.354;10.064;2022-12-16T17:36:59;-0.70;99.90
1702;DHT22;848;48.354;10.064;2022-12-16T17:39:43;-0.80;99.90
1702;DHT22;848;48.354;10.064;2022-12-16T17:42:29;-0.90;99.90
1702;DHT22;848;48.354;10.064;2022-12-16T17:45:13;-1.10;99.90
1702;DHT22;848;48.354;10.064;2022-12-16T17:47:58;-1.10;99.90
1702;DHT22;848;48.354;10.064;2022-12-16T17:50:42;-1.10;99.90
1702;DHT22;848;48.354;10.064;2022-12-16T17:53:29;-1.30;99.90
1702;DHT22;848;48.354;10.064;2022-12-16T17:56:24;-1.20;99.90
1702;DHT22;848;48.354;10.064;2022-12-16T17:59:10;-1.20;99.90
1702;DHT22;848;48.354;10.064;2022-12-16T18:01:54;-1.10;99.90
1702;DHT22;848;48.354;10.064;2022-12-16T18:04:38;-1.00;99.90